Terminal Aerodrome Forecast
Issued by NWS

Home | Current Version | Previous Version | Text Only | Print | Product List | Glossary On
Versions: 1 2 3 4 5 6 7 8 9 10 11 12 13
000
FTUS45 KTFX 272300 RRA
TAFBZN
TAF
KBZN 272342Z 2800/2824 VRB06KT P6SM OVC070
      TEMPO 2806/2810 5SM -SN BR OVC035
     FM281000 VRB06KT 2SM -SN BR OVC030
     FM281600 VRB06KT P6SM OVC035
     FM282000 33006KT 3/4SM -SN BR OVC020=

USA.gov is the U.S. government's official web portal to all federal, state and local government web resources and services.